createdAt,value
2018-06-12T00:00:05.393Z,17.50
2018-06-12T00:02:33.801Z,17.60
2018-06-12T00:05:02.628Z,17.60
2018-06-12T00:07:31.048Z,17.50
2018-06-12T00:09:59.370Z,17.50
2018-06-12T00:12:27.804Z,17.60
2018-06-12T00:14:56.492Z,17.50
2018-06-12T00:17:24.924Z,17.50
2018-06-12T00:19:53.238Z,17.50
2018-06-12T00:22:22.409Z,17.70
2018-06-12T00:24:50.871Z,17.70
2018-06-12T00:27:19.429Z,17.60
2018-06-12T00:32:15.821Z,17.70
2018-06-12T00:34:44.244Z,17.60
2018-06-12T00:37:12.688Z,17.60
2018-06-12T00:39:41.054Z,17.50
2018-06-12T00:42:09.357Z,17.60
2018-06-12T00:44:37.765Z,17.60
2018-06-12T00:47:06.114Z,17.60
2018-06-12T00:49:34.505Z,17.60
2018-06-12T00:52:02.948Z,17.60
2018-06-12T00:54:31.404Z,17.60
2018-06-12T00:57:08.113Z,17.50
2018-06-12T00:59:36.565Z,17.50
2018-06-12T01:02:05.344Z,17.50
2018-06-12T01:04:33.833Z,17.40
2018-06-12T01:07:02.258Z,17.40
2018-06-12T01:09:30.692Z,17.50
2018-06-12T01:11:59.120Z,17.60
2018-06-12T01:14:27.499Z,17.70
2018-06-12T01:16:55.791Z,17.70
2018-06-12T01:19:24.152Z,17.70
2018-06-12T01:21:52.520Z,17.50
2018-06-12T01:24:20.870Z,17.60
2018-06-12T01:26:49.266Z,17.60
2018-06-12T01:29:17.731Z,17.70
2018-06-12T01:31:46.153Z,17.70
2018-06-12T01:34:15.398Z,17.70
2018-06-12T01:36:43.879Z,17.60
2018-06-12T01:39:12.293Z,17.70
2018-06-12T01:41:40.699Z,17.70
2018-06-12T01:44:09.090Z,17.80
2018-06-12T01:46:37.364Z,17.80
2018-06-12T01:49:05.803Z,17.80
2018-06-12T01:51:34.236Z,17.70
2018-06-12T01:54:02.626Z,17.60
2018-06-12T01:56:31.057Z,17.60
2018-06-12T01:58:59.445Z,17.70
2018-06-12T02:01:27.811Z,17.70
2018-06-12T02:03:56.365Z,17.70
2018-06-12T02:06:24.738Z,17.70
2018-06-12T02:08:53.187Z,17.70
2018-06-12T02:11:21.543Z,17.60
2018-06-12T02:13:49.916Z,17.50
2018-06-12T02:16:18.322Z,17.50
2018-06-12T02:18:46.730Z,17.50
2018-06-12T02:21:15.136Z,17.50
2018-06-12T02:23:43.496Z,17.50
2018-06-12T02:26:11.879Z,17.60
2018-06-12T02:28:40.247Z,17.50
2018-06-12T02:31:08.644Z,17.60
2018-06-12T02:33:36.949Z,17.50
2018-06-12T02:36:05.763Z,17.40
2018-06-12T02:38:34.229Z,17.50
2018-06-12T02:41:02.609Z,17.60
2018-06-12T02:43:30.998Z,17.60
2018-06-12T02:45:59.363Z,17.60
2018-06-12T02:48:27.887Z,17.60
2018-06-12T02:50:56.277Z,17.60
2018-06-12T02:53:24.620Z,17.60
2018-06-12T02:55:53.016Z,17.50
2018-06-12T02:58:21.367Z,17.50
2018-06-12T03:00:49.748Z,17.50
2018-06-12T03:03:18.080Z,17.40
2018-06-12T03:05:46.501Z,17.40
2018-06-12T03:08:14.962Z,17.40
2018-06-12T03:10:43.361Z,17.40
2018-06-12T03:13:11.741Z,17.40
2018-06-12T03:15:40.136Z,17.40
2018-06-12T03:18:08.609Z,17.40
2018-06-12T03:20:43.852Z,17.60
2018-06-12T03:23:12.394Z,17.60
2018-06-12T03:25:40.745Z,17.50
2018-06-12T03:28:09.809Z,17.50
2018-06-12T03:30:38.227Z,17.50
2018-06-12T03:33:06.660Z,17.50
2018-06-12T03:35:35.057Z,17.40
2018-06-12T03:38:03.530Z,17.40
2018-06-12T03:40:31.926Z,17.40
2018-06-12T03:43:00.351Z,17.40
2018-06-12T03:47:56.990Z,17.40
2018-06-12T03:50:25.433Z,17.40
2018-06-12T03:52:53.755Z,17.40
2018-06-12T03:57:50.189Z,17.60
2018-06-12T04:00:18.629Z,17.60
2018-06-12T04:02:47.061Z,17.60
2018-06-12T04:05:15.518Z,17.60
2018-06-12T04:07:44.008Z,17.60
2018-06-12T04:10:12.454Z,17.60
2018-06-12T04:12:40.869Z,17.60
2018-06-12T04:15:09.287Z,17.60
2018-06-12T04:17:37.685Z,17.60
2018-06-12T04:20:06.033Z,17.60
2018-06-12T04:22:34.850Z,17.60
2018-06-12T04:25:03.268Z,17.60
2018-06-12T04:27:31.663Z,17.60
2018-06-12T04:30:00.094Z,17.60
2018-06-12T04:32:28.501Z,17.50
2018-06-12T04:34:57.001Z,17.60
2018-06-12T04:37:25.452Z,17.50
2018-06-12T04:39:53.869Z,17.60
2018-06-12T04:42:22.464Z,17.60
2018-06-12T04:44:50.835Z,17.60
2018-06-12T04:47:19.180Z,17.60
2018-06-12T04:49:47.525Z,17.60
2018-06-12T04:52:15.955Z,17.60
2018-06-12T04:54:44.413Z,17.60
2018-06-12T04:57:12.848Z,17.60
2018-06-12T04:59:41.196Z,17.70
2018-06-12T05:02:09.597Z,17.80
2018-06-12T05:04:38.038Z,17.80
2018-06-12T05:07:06.392Z,17.80
2018-06-12T05:09:34.770Z,18.00
2018-06-12T05:12:03.216Z,18.10
2018-06-12T05:14:31.553Z,18.10
2018-06-12T05:16:59.976Z,18.10
2018-06-12T05:19:28.354Z,18.10
2018-06-12T05:21:56.792Z,18.20
2018-06-12T05:24:25.147Z,18.20
2018-06-12T05:26:53.725Z,18.20
2018-06-12T05:29:22.036Z,18.20
2018-06-12T05:31:50.437Z,18.20
2018-06-12T05:34:18.874Z,18.30
2018-06-12T05:36:47.279Z,18.30
2018-06-12T05:39:15.643Z,18.40
2018-06-12T05:41:44.115Z,18.40
2018-06-12T05:44:12.435Z,18.40
2018-06-12T05:46:40.923Z,18.50
2018-06-12T05:49:10.231Z,18.60
2018-06-12T05:51:38.547Z,18.70
2018-06-12T05:54:06.956Z,18.80
2018-06-12T05:56:35.406Z,18.90
2018-06-12T05:59:10.282Z,19.00
2018-06-12T06:01:38.720Z,19.00
2018-06-12T06:04:07.150Z,19.00
2018-06-12T06:06:35.540Z,19.10
2018-06-12T06:09:05.770Z,19.10
2018-06-12T06:11:34.196Z,19.10
2018-06-12T06:14:08.934Z,19.20
2018-06-12T06:16:37.311Z,19.20
2018-06-12T06:19:05.714Z,19.20
2018-06-12T06:21:34.086Z,19.20
2018-06-12T06:24:02.558Z,19.20
2018-06-12T06:26:31.011Z,19.20
2018-06-12T06:28:59.438Z,19.10
2018-06-12T06:31:27.821Z,19.10
2018-06-12T06:33:56.309Z,19.10
2018-06-12T06:36:24.811Z,19.10
2018-06-12T06:38:53.294Z,19.10
2018-06-12T06:41:21.717Z,19.10
2018-06-12T06:43:50.144Z,19.10
2018-06-12T06:46:18.607Z,19.10
2018-06-12T06:48:47.109Z,19.20
2018-06-12T06:51:15.627Z,19.20
2018-06-12T06:53:44.100Z,19.20
2018-06-12T06:56:12.552Z,19.20
2018-06-12T06:58:40.958Z,19.20
2018-06-12T07:01:09.275Z,19.30
2018-06-12T07:03:37.748Z,19.30
2018-06-12T07:06:06.167Z,19.50
2018-06-12T07:08:34.541Z,19.60
2018-06-12T07:11:03.152Z,19.60
2018-06-12T07:15:59.770Z,19.80
2018-06-12T07:18:28.118Z,19.90
2018-06-12T07:21:18.615Z,20.10
2018-06-12T07:23:47.150Z,20.20
2018-06-12T07:26:15.672Z,20.40
2018-06-12T07:28:44.400Z,20.60
2018-06-12T07:31:12.851Z,20.70
2018-06-12T07:33:41.472Z,20.80
2018-06-12T07:36:10.351Z,21.00
2018-06-12T07:38:38.759Z,21.10
2018-06-12T07:43:35.388Z,21.30
2018-06-12T07:46:03.929Z,21.50
2018-06-12T07:48:32.387Z,21.50
2018-06-12T07:51:00.954Z,21.50
2018-06-12T07:53:29.399Z,21.70
2018-06-12T07:55:57.816Z,21.80
2018-06-12T07:58:26.326Z,21.90
2018-06-12T08:00:55.098Z,21.90
2018-06-12T08:03:23.460Z,22.00
2018-06-12T08:05:51.880Z,22.00
2018-06-12T08:08:20.236Z,21.90
2018-06-12T08:10:48.537Z,21.80
2018-06-12T08:13:16.904Z,21.80
2018-06-12T08:15:45.363Z,21.80
2018-06-12T08:18:13.931Z,21.70
2018-06-12T08:20:42.357Z,21.80
2018-06-12T08:23:10.735Z,21.80
2018-06-12T08:25:39.138Z,21.80
2018-06-12T08:28:07.748Z,21.80
2018-06-12T08:30:36.279Z,21.90
2018-06-12T08:33:04.708Z,22.00
2018-06-12T08:35:33.115Z,22.20
2018-06-12T08:38:01.549Z,22.40
2018-06-12T08:40:29.940Z,22.60
2018-06-12T08:42:58.430Z,23.00
2018-06-12T08:45:26.878Z,23.00
2018-06-12T08:47:55.299Z,22.80
2018-06-12T08:50:23.855Z,22.60
2018-06-12T08:52:52.322Z,22.80
2018-06-12T08:55:20.791Z,22.90
2018-06-12T08:57:49.107Z,23.10
2018-06-12T09:00:17.485Z,23.30
2018-06-12T09:02:45.924Z,23.40
2018-06-12T09:05:14.392Z,23.50
2018-06-12T09:07:42.765Z,23.50
2018-06-12T09:10:11.080Z,23.40
2018-06-12T09:12:39.491Z,23.30
2018-06-12T09:15:07.865Z,22.90
2018-06-12T09:20:05.088Z,22.90
2018-06-12T09:22:33.548Z,22.90
2018-06-12T09:25:02.091Z,23.00
2018-06-12T09:27:34.768Z,23.10
2018-06-12T09:30:03.215Z,23.20
2018-06-12T09:32:31.712Z,23.30
2018-06-12T09:35:00.103Z,23.50
2018-06-12T09:37:28.458Z,23.70
2018-06-12T09:39:57.233Z,23.80
2018-06-12T09:42:26.090Z,23.90
2018-06-12T09:44:54.537Z,24.00
2018-06-12T09:49:51.194Z,24.30
2018-06-12T09:52:19.682Z,24.40
2018-06-12T09:54:48.129Z,24.60
2018-06-12T09:57:16.436Z,24.80
2018-06-12T09:59:44.832Z,24.90
2018-06-12T10:02:13.228Z,25.10
2018-06-12T10:04:41.613Z,25.30
2018-06-12T10:07:10.255Z,25.20
2018-06-12T10:09:38.641Z,25.10
2018-06-12T10:12:07.027Z,25.00
2018-06-12T10:14:35.380Z,24.90
2018-06-12T10:17:04.464Z,25.00
2018-06-12T10:19:33.138Z,25.10
2018-06-12T10:22:01.665Z,25.20
2018-06-12T10:24:30.280Z,25.00
2018-06-12T10:26:59.009Z,25.20
2018-06-12T10:29:27.446Z,25.40
2018-06-12T10:31:55.735Z,25.60
2018-06-12T10:34:24.160Z,25.70
2018-06-12T10:36:52.681Z,25.70
2018-06-12T10:39:21.481Z,25.80
2018-06-12T10:41:49.887Z,25.80
2018-06-12T10:44:18.458Z,25.60
2018-06-12T10:46:46.896Z,25.70
2018-06-12T10:49:15.442Z,25.80
2018-06-12T10:51:43.895Z,26.00
2018-06-12T10:54:12.370Z,25.90
2018-06-12T10:56:41.127Z,25.90
2018-06-12T10:59:10.239Z,25.50
2018-06-12T11:01:38.743Z,25.60
2018-06-12T11:04:07.128Z,25.60
2018-06-12T11:06:36.636Z,25.60
2018-06-12T11:09:06.597Z,25.30
2018-06-12T11:11:35.141Z,25.30
2018-06-12T11:14:03.558Z,25.60
2018-06-12T11:16:31.993Z,25.60
2018-06-12T11:19:00.768Z,25.60
2018-06-12T11:21:29.445Z,25.70
2018-06-12T11:23:58.288Z,25.40
2018-06-12T11:26:26.670Z,25.30
2018-06-12T11:28:55.079Z,25.40
2018-06-12T11:31:23.578Z,25.40
2018-06-12T11:33:51.971Z,25.50
2018-06-12T11:36:20.528Z,25.50
2018-06-12T11:38:49.123Z,25.40
2018-06-12T11:41:17.753Z,25.60
2018-06-12T11:43:46.152Z,25.60
2018-06-12T11:46:14.525Z,25.80
2018-06-12T11:48:43.053Z,25.70
2018-06-12T11:51:11.482Z,25.60
2018-06-12T11:53:39.879Z,25.70
2018-06-12T11:56:08.307Z,25.70
2018-06-12T11:58:37.057Z,25.70
2018-06-12T12:01:05.753Z,25.60
2018-06-12T12:03:34.304Z,25.40
2018-06-12T12:06:02.857Z,25.40
2018-06-12T12:08:31.225Z,25.30
2018-06-12T12:10:59.594Z,25.20
2018-06-12T12:13:28.616Z,24.90
2018-06-12T12:15:57.135Z,24.40
2018-06-12T12:18:25.610Z,24.00
2018-06-12T12:23:22.344Z,23.40
2018-06-12T12:25:50.908Z,23.30
2018-06-12T12:28:19.507Z,23.20
2018-06-12T12:30:47.964Z,23.00
2018-06-12T12:33:16.369Z,22.80
2018-06-12T12:35:44.883Z,22.70
2018-06-12T12:38:13.429Z,22.50
2018-06-12T12:40:42.389Z,22.30
2018-06-12T12:43:10.779Z,22.30
2018-06-12T12:45:39.302Z,22.20
2018-06-12T12:48:07.834Z,22.10
2018-06-12T12:50:36.232Z,22.10
2018-06-12T12:53:04.913Z,22.20
2018-06-12T12:55:33.843Z,22.00
2018-06-12T12:58:02.748Z,22.00
2018-06-12T13:00:31.100Z,22.10
2018-06-12T13:02:59.541Z,22.00
2018-06-12T13:05:28.076Z,22.20
2018-06-12T13:07:56.719Z,22.40
2018-06-12T13:10:25.738Z,22.50
2018-06-12T13:12:54.180Z,22.60
2018-06-12T13:15:22.792Z,22.70
2018-06-12T13:17:51.210Z,22.90
2018-06-12T13:20:19.607Z,23.10
2018-06-12T13:22:48.122Z,23.20
2018-06-12T13:25:16.564Z,23.50
2018-06-12T13:27:44.996Z,23.60
2018-06-12T13:30:13.480Z,23.70
2018-06-12T13:32:41.997Z,23.90
2018-06-12T13:35:10.475Z,24.00
2018-06-12T13:37:39.026Z,24.20
2018-06-12T13:40:07.426Z,24.20
2018-06-12T13:42:35.997Z,24.30
2018-06-12T13:45:04.447Z,24.40
2018-06-12T13:47:32.809Z,24.70
2018-06-12T13:50:01.328Z,24.90
2018-06-12T13:52:29.736Z,25.00
2018-06-12T13:54:58.281Z,25.30
2018-06-12T13:57:26.723Z,25.50
2018-06-12T13:59:55.362Z,25.50
2018-06-12T14:02:23.812Z,25.50
2018-06-12T14:04:52.218Z,25.60
2018-06-12T14:07:20.622Z,25.60
2018-06-12T14:09:49.023Z,25.80
2018-06-12T14:12:17.356Z,25.70
2018-06-12T14:14:45.858Z,25.70
2018-06-12T14:17:14.281Z,25.80
2018-06-12T14:19:42.737Z,25.60
2018-06-12T14:22:11.126Z,25.70
2018-06-12T14:24:39.586Z,25.60
2018-06-12T14:27:08.038Z,25.80
2018-06-12T14:29:36.422Z,25.80
2018-06-12T14:32:04.847Z,25.90
2018-06-12T14:34:33.246Z,26.10
2018-06-12T14:37:01.684Z,26.00
2018-06-12T14:39:30.135Z,26.00
2018-06-12T14:41:58.525Z,26.10
2018-06-12T14:44:26.928Z,26.20
2018-06-12T14:46:55.386Z,26.00
2018-06-12T14:49:23.775Z,26.10
2018-06-12T14:51:52.198Z,26.00
2018-06-12T14:54:20.540Z,26.00
2018-06-12T14:56:48.917Z,26.00
2018-06-12T14:59:17.317Z,25.90
2018-06-12T15:01:45.748Z,25.80
2018-06-12T15:04:14.097Z,25.70
2018-06-12T15:06:42.521Z,25.70
2018-06-12T15:09:10.907Z,25.70
2018-06-12T15:11:39.257Z,25.60
2018-06-12T15:14:07.630Z,25.60
2018-06-12T15:16:36.023Z,25.60
2018-06-12T15:19:04.422Z,25.40
2018-06-12T15:21:32.836Z,25.30
2018-06-12T15:24:01.341Z,25.10
2018-06-12T15:26:29.801Z,25.00
2018-06-12T15:28:58.135Z,24.90
2018-06-12T15:31:26.481Z,24.70
2018-06-12T15:33:55.029Z,24.50
2018-06-12T15:36:23.446Z,24.50
2018-06-12T15:38:51.833Z,24.40
2018-06-12T15:41:20.281Z,24.40
2018-06-12T15:43:48.664Z,24.70
2018-06-12T15:46:17.118Z,24.80
2018-06-12T15:48:45.460Z,25.00
2018-06-12T15:51:13.818Z,25.20
2018-06-12T15:53:42.239Z,25.20
2018-06-12T15:56:10.711Z,25.30
2018-06-12T15:58:39.136Z,25.40
2018-06-12T16:01:07.596Z,25.40
2018-06-12T16:03:36.043Z,25.40
2018-06-12T16:06:04.397Z,25.40
2018-06-12T16:08:32.735Z,25.50
2018-06-12T16:11:01.186Z,25.60
2018-06-12T16:13:29.595Z,25.70
2018-06-12T16:15:57.994Z,25.60
2018-06-12T16:18:26.334Z,25.30
2018-06-12T16:20:55.433Z,25.00
2018-06-12T16:23:23.853Z,24.80
2018-06-12T16:25:52.602Z,24.50
2018-06-12T16:28:20.937Z,24.30
2018-06-12T16:30:49.468Z,24.00
2018-06-12T16:33:17.908Z,23.80
2018-06-12T16:35:46.250Z,23.60
2018-06-12T16:38:14.720Z,23.40
2018-06-12T16:40:43.133Z,23.10
2018-06-12T16:43:11.612Z,22.80
2018-06-12T16:45:39.993Z,22.60
2018-06-12T16:48:08.567Z,22.40
2018-06-12T16:50:37.049Z,22.40
2018-06-12T16:53:06.104Z,22.40
2018-06-12T16:55:34.510Z,22.30
2018-06-12T16:58:03.044Z,22.30
2018-06-12T17:00:31.450Z,22.20
2018-06-12T17:02:59.886Z,22.20
2018-06-12T17:05:28.384Z,22.20
2018-06-12T17:07:56.799Z,22.30
2018-06-12T17:10:25.223Z,22.30
2018-06-12T17:12:53.831Z,22.30
2018-06-12T17:15:22.348Z,22.20
2018-06-12T17:17:50.791Z,22.10
2018-06-12T17:20:19.811Z,22.00
2018-06-12T17:22:48.202Z,21.90
2018-06-12T17:25:16.539Z,21.80
2018-06-12T17:27:45.041Z,21.70
2018-06-12T17:30:13.388Z,21.70
2018-06-12T17:32:41.920Z,21.60
2018-06-12T17:35:10.498Z,21.50
2018-06-12T17:37:38.875Z,21.50
2018-06-12T17:40:07.286Z,21.50
2018-06-12T17:42:35.774Z,21.50
2018-06-12T17:45:04.276Z,21.50
2018-06-12T17:47:32.679Z,21.40
2018-06-12T17:50:01.148Z,21.40
2018-06-12T17:52:29.575Z,21.40
2018-06-12T17:54:57.938Z,21.30
2018-06-12T17:57:26.562Z,21.30
2018-06-12T17:59:54.997Z,21.30
2018-06-12T18:02:23.450Z,21.30
2018-06-12T18:04:51.922Z,21.20
2018-06-12T18:07:20.300Z,21.20
2018-06-12T18:09:48.692Z,21.10
2018-06-12T18:12:17.106Z,21.00
2018-06-12T18:14:45.668Z,21.00
2018-06-12T18:17:14.068Z,21.00
2018-06-12T18:19:42.539Z,20.90
2018-06-12T18:22:10.851Z,20.80
2018-06-12T18:24:44.766Z,20.80
2018-06-12T18:27:16.316Z,20.70
2018-06-12T18:29:45.056Z,20.60
2018-06-12T18:32:13.513Z,20.60
2018-06-12T18:34:41.978Z,20.40
2018-06-12T18:37:10.295Z,20.20
2018-06-12T18:39:38.778Z,20.20
2018-06-12T18:42:07.198Z,20.10
2018-06-12T18:44:35.641Z,20.00
2018-06-12T18:47:04.062Z,20.00
2018-06-12T18:52:00.665Z,19.90
2018-06-12T18:54:29.106Z,19.80
2018-06-12T18:56:57.630Z,19.70
2018-06-12T18:59:26.095Z,19.60
2018-06-12T19:01:54.466Z,19.70
2018-06-12T19:04:23.350Z,19.60
2018-06-12T19:06:51.671Z,19.50
2018-06-12T19:09:20.118Z,19.50
2018-06-12T19:11:49.050Z,19.50
2018-06-12T19:14:17.521Z,19.40
2018-06-12T19:16:45.926Z,19.40
2018-06-12T19:19:14.466Z,19.40
2018-06-12T19:21:42.849Z,19.20
2018-06-12T19:24:11.224Z,19.10
2018-06-12T19:26:39.681Z,19.20
2018-06-12T19:29:08.091Z,19.10
2018-06-12T19:31:36.464Z,19.00
2018-06-12T19:34:04.858Z,19.00
2018-06-12T19:36:33.228Z,18.90
2018-06-12T19:39:01.659Z,18.80
2018-06-12T19:41:30.201Z,18.80
2018-06-12T19:43:58.696Z,18.80
2018-06-12T19:46:27.142Z,18.80
2018-06-12T19:48:55.705Z,18.80
2018-06-12T19:51:24.034Z,18.80
2018-06-12T19:53:52.445Z,18.80
2018-06-12T19:56:20.941Z,18.80
2018-06-12T19:58:49.424Z,18.90
2018-06-12T20:01:17.857Z,18.90
2018-06-12T20:03:46.305Z,19.00
2018-06-12T20:06:14.786Z,19.10
2018-06-12T20:08:43.167Z,19.00
2018-06-12T20:11:11.586Z,19.10
2018-06-12T20:13:39.999Z,19.00
2018-06-12T20:16:08.445Z,18.90
2018-06-12T20:18:36.793Z,18.70
2018-06-12T20:21:05.145Z,18.60
2018-06-12T20:23:33.680Z,18.60
2018-06-12T20:26:02.174Z,18.50
2018-06-12T20:28:30.654Z,18.40
2018-06-12T20:30:59.626Z,18.30
2018-06-12T20:33:28.161Z,18.20
2018-06-12T20:35:56.857Z,18.10
2018-06-12T20:38:25.290Z,18.00
2018-06-12T20:40:53.616Z,17.90
2018-06-12T20:43:22.046Z,17.80
2018-06-12T20:45:50.624Z,17.70
2018-06-12T20:48:19.000Z,17.70
2018-06-12T20:50:47.375Z,17.70
2018-06-12T20:53:15.885Z,17.60
2018-06-12T20:55:44.285Z,17.50
2018-06-12T20:58:12.799Z,17.50
2018-06-12T21:00:41.350Z,17.50
2018-06-12T21:03:09.679Z,17.40
2018-06-12T21:05:38.093Z,17.30
2018-06-12T21:08:07.024Z,17.10
2018-06-12T21:10:35.467Z,17.00
2018-06-12T21:13:03.864Z,16.90
2018-06-12T21:15:32.327Z,16.80
2018-06-12T21:18:01.283Z,16.80
2018-06-12T21:20:29.660Z,16.70
2018-06-12T21:22:58.167Z,16.60
2018-06-12T21:25:26.590Z,16.60
2018-06-12T21:27:54.983Z,16.40
2018-06-12T21:30:23.519Z,16.30
2018-06-12T21:32:52.008Z,16.40
2018-06-12T21:35:20.410Z,16.40
2018-06-12T21:37:48.852Z,16.30
2018-06-12T21:40:17.230Z,16.20
2018-06-12T21:42:45.569Z,16.10
2018-06-12T21:45:14.096Z,16.10
2018-06-12T21:50:10.678Z,16.20
2018-06-12T21:52:39.073Z,16.20
2018-06-12T21:55:07.530Z,16.20
2018-06-12T21:57:36.050Z,16.20
2018-06-12T22:00:05.708Z,16.20
2018-06-12T22:02:34.150Z,16.20
2018-06-12T22:05:02.606Z,16.20
2018-06-12T22:07:30.948Z,16.20
2018-06-12T22:09:59.363Z,16.20
2018-06-12T22:12:27.754Z,16.20
2018-06-12T22:14:56.208Z,16.20
2018-06-12T22:17:24.746Z,16.10
2018-06-12T22:19:53.274Z,16.10
2018-06-12T22:22:21.676Z,16.10
2018-06-12T22:24:50.117Z,16.10
2018-06-12T22:27:18.551Z,16.00
2018-06-12T22:29:47.140Z,15.90
2018-06-12T22:32:15.755Z,15.80
2018-06-12T22:34:44.114Z,15.90
2018-06-12T22:37:12.514Z,15.80
2018-06-12T22:39:40.962Z,15.70
2018-06-12T22:42:09.339Z,15.90
2018-06-12T22:44:37.876Z,15.70
2018-06-12T22:47:06.328Z,15.70
2018-06-12T22:49:34.723Z,15.80
2018-06-12T22:52:03.114Z,15.80
2018-06-12T22:54:31.597Z,15.80
2018-06-12T22:57:00.031Z,15.90
2018-06-12T22:59:28.447Z,15.90
2018-06-12T23:01:56.857Z,15.90
2018-06-12T23:04:25.388Z,15.90
2018-06-12T23:06:53.878Z,15.80
2018-06-12T23:09:22.262Z,15.80
2018-06-12T23:11:50.705Z,15.80
2018-06-12T23:14:19.074Z,15.80
2018-06-12T23:16:47.502Z,15.80
2018-06-12T23:19:15.914Z,15.90
2018-06-12T23:21:55.541Z,15.80
2018-06-12T23:24:23.903Z,16.00
2018-06-12T23:26:52.293Z,15.90
2018-06-12T23:29:20.811Z,15.90
2018-06-12T23:31:49.325Z,15.90
2018-06-12T23:34:17.777Z,15.90
2018-06-12T23:36:46.274Z,16.00
2018-06-12T23:39:14.681Z,16.00
2018-06-12T23:41:43.094Z,16.00
2018-06-12T23:44:11.466Z,15.90
2018-06-12T23:46:39.943Z,15.80
2018-06-12T23:49:08.399Z,15.80
2018-06-12T23:51:36.930Z,15.80
2018-06-12T23:54:05.456Z,15.80
2018-06-12T23:56:33.947Z,15.70
2018-06-12T23:59:02.367Z,15.70
